sensor_id;sensor_type;location;lat;lon;timestamp;P1;durP1;ratioP1;P2;durP2;ratioP2
56171;SDS011;42052;41.634;-0.946;2023-06-01T00:00:37;5.38;;;3.80;;
56171;SDS011;42052;41.634;-0.946;2023-06-01T00:03:26;6.57;;;3.22;;
56171;SDS011;42052;41.634;-0.946;2023-06-01T00:06:14;5.10;;;3.38;;
56171;SDS011;42052;41.634;-0.946;2023-06-01T00:09:01;5.13;;;3.50;;
56171;SDS011;42052;41.634;-0.946;2023-06-01T00:11:48;6.40;;;3.17;;
56171;SDS011;42052;41.634;-0.946;2023-06-01T00:14:34;5.53;;;3.80;;
56171;SDS011;42052;41.634;-0.946;2023-06-01T00:17:20;4.63;;;3.30;;
56171;SDS011;42052;41.634;-0.946;2023-06-01T00:20:08;7.72;;;3.63;;
56171;SDS011;42052;41.634;-0.946;2023-06-01T00:22:54;5.95;;;3.42;;
56171;SDS011;42052;41.634;-0.946;2023-06-01T00:25:41;5.80;;;3.80;;
56171;SDS011;42052;41.634;-0.946;2023-06-01T00:28:27;4.88;;;3.50;;
56171;SDS011;42052;41.634;-0.946;2023-06-01T00:31:13;5.63;;;3.40;;
56171;SDS011;42052;41.634;-0.946;2023-06-01T00:33:59;4.75;;;3.60;;
56171;SDS011;42052;41.634;-0.946;2023-06-01T00:36:45;5.50;;;3.47;;
56171;SDS011;42052;41.634;-0.946;2023-06-01T00:39:31;4.68;;;3.42;;
56171;SDS011;42052;41.634;-0.946;2023-06-01T00:42:17;7.57;;;3.83;;
56171;SDS011;42052;41.634;-0.946;2023-06-01T00:45:04;4.82;;;3.42;;
56171;SDS011;42052;41.634;-0.946;2023-06-01T00:47:50;6.55;;;3.72;;
56171;SDS011;42052;41.634;-0.946;2023-06-01T00:50:37;7.22;;;3.38;;
56171;SDS011;42052;41.634;-0.946;2023-06-01T00:53:24;6.40;;;3.40;;
56171;SDS011;42052;41.634;-0.946;2023-06-01T00:56:10;6.35;;;3.38;;
56171;SDS011;42052;41.634;-0.946;2023-06-01T00:58:59;5.82;;;3.20;;
56171;SDS011;42052;41.634;-0.946;2023-06-01T01:01:46;5.05;;;3.60;;
56171;SDS011;42052;41.634;-0.946;2023-06-01T01:04:32;6.15;;;3.58;;
56171;SDS011;42052;41.634;-0.946;2023-06-01T01:07:21;5.35;;;3.45;;
56171;SDS011;42052;41.634;-0.946;2023-06-01T01:10:44;5.88;;;3.70;;
56171;SDS011;42052;41.634;-0.946;2023-06-01T01:13:41;5.57;;;3.30;;
56171;SDS011;42052;41.634;-0.946;2023-06-01T01:16:44;4.88;;;3.42;;
56171;SDS011;42052;41.634;-0.946;2023-06-01T01:29:06;6.03;;;3.58;;
56171;SDS011;42052;41.634;-0.946;2023-06-01T01:31:55;6.63;;;3.58;;
56171;SDS011;42052;41.634;-0.946;2023-06-01T01:34:42;8.90;;;3.63;;
56171;SDS011;42052;41.634;-0.946;2023-06-01T01:37:31;5.10;;;3.25;;
56171;SDS011;42052;41.634;-0.946;2023-06-01T01:40:18;6.22;;;3.83;;
56171;SDS011;42052;41.634;-0.946;2023-06-01T01:43:05;4.82;;;3.50;;
56171;SDS011;42052;41.634;-0.946;2023-06-01T01:46:01;4.43;;;3.50;;
56171;SDS011;42052;41.634;-0.946;2023-06-01T01:48:58;5.57;;;3.50;;
56171;SDS011;42052;41.634;-0.946;2023-06-01T01:51:50;5.57;;;3.40;;
56171;SDS011;42052;41.634;-0.946;2023-06-01T01:54:42;5.13;;;3.47;;
56171;SDS011;42052;41.634;-0.946;2023-06-01T01:57:30;6.85;;;3.53;;
56171;SDS011;42052;41.634;-0.946;2023-06-01T02:00:19;7.43;;;3.70;;
56171;SDS011;42052;41.634;-0.946;2023-06-01T02:03:12;7.07;;;3.75;;
56171;SDS011;42052;41.634;-0.946;2023-06-01T02:05:59;5.90;;;3.63;;
56171;SDS011;42052;41.634;-0.946;2023-06-01T02:08:45;5.28;;;3.60;;
56171;SDS011;42052;41.634;-0.946;2023-06-01T02:11:32;5.13;;;3.53;;
56171;SDS011;42052;41.634;-0.946;2023-06-01T02:14:19;5.82;;;3.88;;
56171;SDS011;42052;41.634;-0.946;2023-06-01T02:17:05;4.45;;;3.65;;
56171;SDS011;42052;41.634;-0.946;2023-06-01T02:19:52;5.28;;;3.80;;
56171;SDS011;42052;41.634;-0.946;2023-06-01T02:22:38;4.93;;;3.85;;
56171;SDS011;42052;41.634;-0.946;2023-06-01T02:25:25;6.45;;;4.30;;
56171;SDS011;42052;41.634;-0.946;2023-06-01T02:28:11;6.18;;;3.80;;
56171;SDS011;42052;41.634;-0.946;2023-06-01T02:30:57;6.00;;;3.90;;
56171;SDS011;42052;41.634;-0.946;2023-06-01T02:33:43;6.30;;;4.30;;
56171;SDS011;42052;41.634;-0.946;2023-06-01T02:36:29;5.93;;;4.30;;
56171;SDS011;42052;41.634;-0.946;2023-06-01T02:39:17;5.68;;;3.83;;
56171;SDS011;42052;41.634;-0.946;2023-06-01T02:42:03;6.22;;;3.97;;
56171;SDS011;42052;41.634;-0.946;2023-06-01T02:44:49;5.97;;;3.85;;
56171;SDS011;42052;41.634;-0.946;2023-06-01T02:47:35;7.28;;;4.10;;
56171;SDS011;42052;41.634;-0.946;2023-06-01T02:50:21;4.78;;;4.00;;
56171;SDS011;42052;41.634;-0.946;2023-06-01T02:53:07;6.03;;;3.75;;
56171;SDS011;42052;41.634;-0.946;2023-06-01T02:55:53;5.28;;;4.10;;
56171;SDS011;42052;41.634;-0.946;2023-06-01T02:58:40;5.90;;;3.95;;
56171;SDS011;42052;41.634;-0.946;2023-06-01T03:01:27;5.70;;;3.92;;
56171;SDS011;42052;41.634;-0.946;2023-06-01T03:04:13;7.13;;;3.65;;
56171;SDS011;42052;41.634;-0.946;2023-06-01T03:07:00;5.80;;;4.03;;
56171;SDS011;42052;41.634;-0.946;2023-06-01T03:09:46;5.18;;;3.65;;
56171;SDS011;42052;41.634;-0.946;2023-06-01T03:12:32;4.78;;;3.75;;
56171;SDS011;42052;41.634;-0.946;2023-06-01T03:15:19;6.22;;;4.10;;
56171;SDS011;42052;41.634;-0.946;2023-06-01T03:18:05;5.47;;;3.80;;
56171;SDS011;42052;41.634;-0.946;2023-06-01T03:20:51;5.40;;;3.90;;
56171;SDS011;42052;41.634;-0.946;2023-06-01T03:23:37;5.20;;;3.40;;
56171;SDS011;42052;41.634;-0.946;2023-06-01T03:26:28;6.30;;;3.90;;
56171;SDS011;42052;41.634;-0.946;2023-06-01T03:29:15;5.50;;;3.72;;
56171;SDS011;42052;41.634;-0.946;2023-06-01T03:32:01;4.53;;;3.85;;
56171;SDS011;42052;41.634;-0.946;2023-06-01T03:34:47;5.53;;;3.67;;
56171;SDS011;42052;41.634;-0.946;2023-06-01T03:37:34;4.57;;;3.70;;
56171;SDS011;42052;41.634;-0.946;2023-06-01T03:40:20;4.63;;;3.63;;
56171;SDS011;42052;41.634;-0.946;2023-06-01T03:43:07;4.95;;;4.00;;
56171;SDS011;42052;41.634;-0.946;2023-06-01T03:45:53;4.80;;;3.97;;
56171;SDS011;42052;41.634;-0.946;2023-06-01T03:48:39;4.80;;;3.85;;
56171;SDS011;42052;41.634;-0.946;2023-06-01T03:51:25;4.47;;;3.50;;
56171;SDS011;42052;41.634;-0.946;2023-06-01T03:54:12;6.35;;;4.35;;
56171;SDS011;42052;41.634;-0.946;2023-06-01T03:56:58;6.53;;;3.53;;
56171;SDS011;42052;41.634;-0.946;2023-06-01T03:59:44;6.65;;;3.90;;
56171;SDS011;42052;41.634;-0.946;2023-06-01T04:02:30;4.22;;;3.60;;
56171;SDS011;42052;41.634;-0.946;2023-06-01T04:05:16;6.93;;;3.92;;
56171;SDS011;42052;41.634;-0.946;2023-06-01T04:08:02;4.57;;;3.50;;
56171;SDS011;42052;41.634;-0.946;2023-06-01T04:10:49;6.93;;;4.00;;
56171;SDS011;42052;41.634;-0.946;2023-06-01T04:13:35;6.43;;;3.90;;
56171;SDS011;42052;41.634;-0.946;2023-06-01T04:16:21;4.78;;;3.72;;
56171;SDS011;42052;41.634;-0.946;2023-06-01T04:19:07;6.53;;;4.00;;
56171;SDS011;42052;41.634;-0.946;2023-06-01T04:21:53;5.90;;;3.97;;
56171;SDS011;42052;41.634;-0.946;2023-06-01T04:24:39;4.60;;;3.75;;
56171;SDS011;42052;41.634;-0.946;2023-06-01T04:27:25;5.45;;;3.72;;
56171;SDS011;42052;41.634;-0.946;2023-06-01T04:30:12;6.60;;;3.90;;
56171;SDS011;42052;41.634;-0.946;2023-06-01T04:33:01;4.70;;;3.92;;
56171;SDS011;42052;41.634;-0.946;2023-06-01T04:35:47;6.50;;;4.35;;
56171;SDS011;42052;41.634;-0.946;2023-06-01T04:38:33;6.60;;;4.20;;
56171;SDS011;42052;41.634;-0.946;2023-06-01T04:41:20;4.80;;;3.67;;
56171;SDS011;42052;41.634;-0.946;2023-06-01T04:44:07;5.55;;;4.25;;
56171;SDS011;42052;41.634;-0.946;2023-06-01T04:46:54;4.63;;;4.05;;
56171;SDS011;42052;41.634;-0.946;2023-06-01T04:49:40;6.13;;;4.22;;
56171;SDS011;42052;41.634;-0.946;2023-06-01T04:52:27;7.10;;;4.32;;
56171;SDS011;42052;41.634;-0.946;2023-06-01T04:55:13;4.50;;;4.10;;
56171;SDS011;42052;41.634;-0.946;2023-06-01T04:57:59;5.80;;;4.10;;
56171;SDS011;42052;41.634;-0.946;2023-06-01T05:00:45;6.40;;;4.30;;
56171;SDS011;42052;41.634;-0.946;2023-06-01T05:03:31;8.27;;;4.55;;
56171;SDS011;42052;41.634;-0.946;2023-06-01T05:06:18;6.05;;;4.47;;
56171;SDS011;42052;41.634;-0.946;2023-06-01T05:09:05;5.45;;;4.43;;
56171;SDS011;42052;41.634;-0.946;2023-06-01T05:11:51;5.57;;;4.70;;
56171;SDS011;42052;41.634;-0.946;2023-06-01T05:14:37;6.85;;;4.20;;
56171;SDS011;42052;41.634;-0.946;2023-06-01T05:17:23;7.00;;;4.55;;
56171;SDS011;42052;41.634;-0.946;2023-06-01T05:20:09;7.20;;;4.55;;
56171;SDS011;42052;41.634;-0.946;2023-06-01T05:22:57;10.02;;;5.05;;
56171;SDS011;42052;41.634;-0.946;2023-06-01T05:25:43;6.30;;;4.65;;
56171;SDS011;42052;41.634;-0.946;2023-06-01T05:28:29;7.55;;;4.60;;
56171;SDS011;42052;41.634;-0.946;2023-06-01T05:31:16;7.45;;;4.85;;
56171;SDS011;42052;41.634;-0.946;2023-06-01T05:34:03;6.75;;;5.13;;
56171;SDS011;42052;41.634;-0.946;2023-06-01T05:36:49;8.07;;;5.30;;
56171;SDS011;42052;41.634;-0.946;2023-06-01T05:39:35;6.47;;;5.15;;
56171;SDS011;42052;41.634;-0.946;2023-06-01T05:42:21;9.73;;;5.47;;
56171;SDS011;42052;41.634;-0.946;2023-06-01T05:45:08;9.68;;;5.00;;
56171;SDS011;42052;41.634;-0.946;2023-06-01T05:47:55;7.22;;;5.38;;
56171;SDS011;42052;41.634;-0.946;2023-06-01T05:50:41;8.40;;;5.05;;
56171;SDS011;42052;41.634;-0.946;2023-06-01T05:53:27;8.52;;;5.20;;
56171;SDS011;42052;41.634;-0.946;2023-06-01T05:56:15;7.88;;;5.25;;
56171;SDS011;42052;41.634;-0.946;2023-06-01T05:59:02;7.75;;;5.10;;
56171;SDS011;42052;41.634;-0.946;2023-06-01T06:01:48;8.25;;;4.85;;
56171;SDS011;42052;41.634;-0.946;2023-06-01T06:04:34;7.72;;;4.80;;
56171;SDS011;42052;41.634;-0.946;2023-06-01T06:07:20;9.52;;;4.60;;
56171;SDS011;42052;41.634;-0.946;2023-06-01T06:10:06;9.65;;;4.85;;
56171;SDS011;42052;41.634;-0.946;2023-06-01T06:12:52;7.63;;;4.55;;
56171;SDS011;42052;41.634;-0.946;2023-06-01T06:15:39;8.35;;;4.65;;
56171;SDS011;42052;41.634;-0.946;2023-06-01T06:18:25;7.25;;;4.65;;
56171;SDS011;42052;41.634;-0.946;2023-06-01T06:21:11;6.60;;;4.25;;
56171;SDS011;42052;41.634;-0.946;2023-06-01T06:23:57;5.68;;;4.43;;
56171;SDS011;42052;41.634;-0.946;2023-06-01T06:26:44;5.40;;;4.40;;
56171;SDS011;42052;41.634;-0.946;2023-06-01T06:29:30;5.85;;;4.13;;
56171;SDS011;42052;41.634;-0.946;2023-06-01T06:32:16;5.20;;;4.25;;
56171;SDS011;42052;41.634;-0.946;2023-06-01T06:35:05;5.35;;;4.30;;
56171;SDS011;42052;41.634;-0.946;2023-06-01T06:37:51;5.40;;;3.70;;
56171;SDS011;42052;41.634;-0.946;2023-06-01T06:40:37;7.28;;;4.25;;
56171;SDS011;42052;41.634;-0.946;2023-06-01T06:43:23;5.47;;;4.40;;
56171;SDS011;42052;41.634;-0.946;2023-06-01T06:46:10;5.93;;;4.00;;
56171;SDS011;42052;41.634;-0.946;2023-06-01T06:48:56;6.43;;;4.32;;
56171;SDS011;42052;41.634;-0.946;2023-06-01T06:51:42;5.43;;;3.90;;
56171;SDS011;42052;41.634;-0.946;2023-06-01T06:54:28;5.90;;;4.13;;
56171;SDS011;42052;41.634;-0.946;2023-06-01T06:57:14;4.90;;;3.95;;
56171;SDS011;42052;41.634;-0.946;2023-06-01T07:00:00;6.10;;;3.75;;
56171;SDS011;42052;41.634;-0.946;2023-06-01T07:02:48;5.07;;;3.80;;
56171;SDS011;42052;41.634;-0.946;2023-06-01T07:05:35;7.47;;;4.28;;
56171;SDS011;42052;41.634;-0.946;2023-06-01T07:08:21;5.18;;;3.60;;
56171;SDS011;42052;41.634;-0.946;2023-06-01T07:11:07;4.68;;;4.03;;
56171;SDS011;42052;41.634;-0.946;2023-06-01T07:13:53;4.15;;;3.65;;
56171;SDS011;42052;41.634;-0.946;2023-06-01T07:16:42;4.97;;;3.97;;
56171;SDS011;42052;41.634;-0.946;2023-06-01T07:19:28;5.50;;;3.60;;
56171;SDS011;42052;41.634;-0.946;2023-06-01T07:22:18;4.90;;;3.75;;
56171;SDS011;42052;41.634;-0.946;2023-06-01T07:25:06;5.93;;;4.10;;
56171;SDS011;42052;41.634;-0.946;2023-06-01T07:27:54;6.05;;;4.10;;
56171;SDS011;42052;41.634;-0.946;2023-06-01T07:30:41;4.57;;;3.47;;
56171;SDS011;42052;41.634;-0.946;2023-06-01T07:33:27;4.72;;;3.47;;
56171;SDS011;42052;41.634;-0.946;2023-06-01T07:36:14;3.85;;;3.40;;
56171;SDS011;42052;41.634;-0.946;2023-06-01T07:39:03;5.15;;;3.67;;
56171;SDS011;42052;41.634;-0.946;2023-06-01T07:41:54;4.80;;;3.78;;
56171;SDS011;42052;41.634;-0.946;2023-06-01T07:44:41;4.50;;;3.50;;
56171;SDS011;42052;41.634;-0.946;2023-06-01T07:47:27;5.22;;;3.55;;
56171;SDS011;42052;41.634;-0.946;2023-06-01T07:50:14;4.03;;;3.55;;
56171;SDS011;42052;41.634;-0.946;2023-06-01T07:53:00;4.93;;;3.33;;
56171;SDS011;42052;41.634;-0.946;2023-06-01T07:55:46;4.78;;;3.58;;
56171;SDS011;42052;41.634;-0.946;2023-06-01T07:58:35;4.95;;;3.70;;
56171;SDS011;42052;41.634;-0.946;2023-06-01T08:01:22;4.10;;;3.42;;
56171;SDS011;42052;41.634;-0.946;2023-06-01T08:04:08;3.92;;;3.15;;
56171;SDS011;42052;41.634;-0.946;2023-06-01T08:06:54;5.22;;;3.60;;
56171;SDS011;42052;41.634;-0.946;2023-06-01T08:09:41;5.40;;;3.33;;
56171;SDS011;42052;41.634;-0.946;2023-06-01T08:12:28;4.68;;;3.42;;
56171;SDS011;42052;41.634;-0.946;2023-06-01T08:15:14;4.10;;;3.28;;
56171;SDS011;42052;41.634;-0.946;2023-06-01T08:18:01;4.32;;;3.55;;
56171;SDS011;42052;41.634;-0.946;2023-06-01T08:20:47;4.13;;;3.30;;
56171;SDS011;42052;41.634;-0.946;2023-06-01T08:23:33;5.40;;;3.75;;
56171;SDS011;42052;41.634;-0.946;2023-06-01T08:26:20;4.72;;;3.40;;
56171;SDS011;42052;41.634;-0.946;2023-06-01T08:29:07;4.60;;;3.58;;
56171;SDS011;42052;41.634;-0.946;2023-06-01T08:31:53;4.55;;;3.58;;
56171;SDS011;42052;41.634;-0.946;2023-06-01T08:34:39;6.00;;;3.38;;
56171;SDS011;42052;41.634;-0.946;2023-06-01T08:37:25;5.90;;;3.58;;
56171;SDS011;42052;41.634;-0.946;2023-06-01T08:40:11;5.53;;;3.80;;
56171;SDS011;42052;41.634;-0.946;2023-06-01T08:46:02;4.90;;;3.50;;
56171;SDS011;42052;41.634;-0.946;2023-06-01T08:48:50;5.32;;;3.35;;
56171;SDS011;42052;41.634;-0.946;2023-06-01T08:51:39;3.88;;;3.42;;
56171;SDS011;42052;41.634;-0.946;2023-06-01T08:54:28;5.25;;;3.53;;
56171;SDS011;42052;41.634;-0.946;2023-06-01T08:57:16;4.68;;;3.45;;
56171;SDS011;42052;41.634;-0.946;2023-06-01T09:00:02;3.78;;;3.17;;
56171;SDS011;42052;41.634;-0.946;2023-06-01T09:02:49;5.15;;;3.55;;
56171;SDS011;42052;41.634;-0.946;2023-06-01T09:05:35;3.72;;;3.25;;
56171;SDS011;42052;41.634;-0.946;2023-06-01T09:08:22;3.97;;;3.50;;
56171;SDS011;42052;41.634;-0.946;2023-06-01T09:11:09;7.60;;;3.53;;
56171;SDS011;42052;41.634;-0.946;2023-06-01T09:13:56;4.68;;;3.55;;
56171;SDS011;42052;41.634;-0.946;2023-06-01T09:16:42;5.28;;;3.10;;
56171;SDS011;42052;41.634;-0.946;2023-06-01T09:19:40;3.60;;;3.13;;
56171;SDS011;42052;41.634;-0.946;2023-06-01T09:22:40;5.80;;;3.22;;
56171;SDS011;42052;41.634;-0.946;2023-06-01T09:25:29;4.75;;;3.10;;
56171;SDS011;42052;41.634;-0.946;2023-06-01T09:28:16;4.15;;;3.38;;
56171;SDS011;42052;41.634;-0.946;2023-06-01T09:31:02;3.90;;;3.30;;
56171;SDS011;42052;41.634;-0.946;2023-06-01T09:34:00;3.70;;;3.10;;
56171;SDS011;42052;41.634;-0.946;2023-06-01T09:36:47;4.82;;;3.60;;
56171;SDS011;42052;41.634;-0.946;2023-06-01T09:39:34;3.75;;;3.30;;
56171;SDS011;42052;41.634;-0.946;2023-06-01T09:42:30;3.97;;;3.30;;
56171;SDS011;42052;41.634;-0.946;2023-06-01T09:45:21;3.45;;;3.15;;
56171;SDS011;42052;41.634;-0.946;2023-06-01T09:48:15;4.32;;;3.03;;
56171;SDS011;42052;41.634;-0.946;2023-06-01T09:51:22;4.57;;;3.20;;
56171;SDS011;42052;41.634;-0.946;2023-06-01T09:54:27;4.28;;;3.20;;
56171;SDS011;42052;41.634;-0.946;2023-06-01T09:57:25;5.78;;;3.63;;
56171;SDS011;42052;41.634;-0.946;2023-06-01T10:00:21;4.32;;;3.30;;
56171;SDS011;42052;41.634;-0.946;2023-06-01T10:03:09;3.80;;;3.20;;
56171;SDS011;42052;41.634;-0.946;2023-06-01T10:05:56;4.78;;;3.13;;
56171;SDS011;42052;41.634;-0.946;2023-06-01T10:08:43;3.40;;;3.10;;
56171;SDS011;42052;41.634;-0.946;2023-06-01T10:11:29;4.45;;;3.25;;
56171;SDS011;42052;41.634;-0.946;2023-06-01T10:14:16;3.88;;;3.40;;
56171;SDS011;42052;41.634;-0.946;2023-06-01T10:17:03;4.15;;;3.28;;
56171;SDS011;42052;41.634;-0.946;2023-06-01T10:19:49;4.20;;;3.28;;
56171;SDS011;42052;41.634;-0.946;2023-06-01T10:22:38;3.47;;;3.10;;
56171;SDS011;42052;41.634;-0.946;2023-06-01T10:25:31;4.60;;;3.05;;
56171;SDS011;42052;41.634;-0.946;2023-06-01T10:28:22;3.40;;;3.10;;
56171;SDS011;42052;41.634;-0.946;2023-06-01T10:34:36;5.18;;;3.53;;
56171;SDS011;42052;41.634;-0.946;2023-06-01T10:37:27;3.60;;;3.00;;
56171;SDS011;42052;41.634;-0.946;2023-06-01T10:43:07;4.72;;;3.03;;
56171;SDS011;42052;41.634;-0.946;2023-06-01T10:49:21;3.50;;;2.90;;
56171;SDS011;42052;41.634;-0.946;2023-06-01T11:01:11;3.60;;;3.20;;
56171;SDS011;42052;41.634;-0.946;2023-06-01T11:04:04;3.08;;;2.78;;
56171;SDS011;42052;41.634;-0.946;2023-06-01T11:06:51;3.35;;;3.05;;
56171;SDS011;42052;41.634;-0.946;2023-06-01T11:09:43;3.53;;;3.20;;
56171;SDS011;42052;41.634;-0.946;2023-06-01T11:13:00;3.83;;;3.03;;
56171;SDS011;42052;41.634;-0.946;2023-06-01T11:19:06;3.97;;;2.90;;
56171;SDS011;42052;41.634;-0.946;2023-06-01T11:22:03;3.83;;;2.95;;
56171;SDS011;42052;41.634;-0.946;2023-06-01T11:24:51;3.22;;;2.90;;
56171;SDS011;42052;41.634;-0.946;2023-06-01T11:27:43;3.42;;;2.78;;
56171;SDS011;42052;41.634;-0.946;2023-06-01T11:30:30;3.70;;;3.20;;
56171;SDS011;42052;41.634;-0.946;2023-06-01T11:33:16;3.17;;;2.80;;
56171;SDS011;42052;41.634;-0.946;2023-06-01T11:36:03;3.50;;;2.85;;
56171;SDS011;42052;41.634;-0.946;2023-06-01T11:38:50;3.53;;;3.00;;
56171;SDS011;42052;41.634;-0.946;2023-06-01T11:41:38;3.67;;;3.10;;
56171;SDS011;42052;41.634;-0.946;2023-06-01T11:44:24;2.92;;;2.65;;
56171;SDS011;42052;41.634;-0.946;2023-06-01T11:47:11;4.30;;;3.03;;
56171;SDS011;42052;41.634;-0.946;2023-06-01T11:49:57;3.38;;;2.90;;
56171;SDS011;42052;41.634;-0.946;2023-06-01T11:52:44;3.55;;;2.80;;
56171;SDS011;42052;41.634;-0.946;2023-06-01T11:55:31;3.15;;;2.85;;
56171;SDS011;42052;41.634;-0.946;2023-06-01T11:58:35;3.50;;;2.58;;
56171;SDS011;42052;41.634;-0.946;2023-06-01T12:01:21;3.25;;;2.95;;
56171;SDS011;42052;41.634;-0.946;2023-06-01T12:07:06;3.33;;;2.88;;
56171;SDS011;42052;41.634;-0.946;2023-06-01T12:09:53;4.32;;;3.00;;
56171;SDS011;42052;41.634;-0.946;2023-06-01T12:12:41;3.67;;;2.90;;
56171;SDS011;42052;41.634;-0.946;2023-06-01T12:15:28;3.92;;;3.00;;
56171;SDS011;42052;41.634;-0.946;2023-06-01T12:18:15;2.80;;;2.60;;
56171;SDS011;42052;41.634;-0.946;2023-06-01T12:21:15;3.85;;;2.92;;
56171;SDS011;42052;41.634;-0.946;2023-06-01T12:24:02;2.95;;;2.65;;
56171;SDS011;42052;41.634;-0.946;2023-06-01T12:26:49;3.25;;;2.67;;
56171;SDS011;42052;41.634;-0.946;2023-06-01T12:29:35;2.97;;;2.60;;
56171;SDS011;42052;41.634;-0.946;2023-06-01T12:32:38;3.15;;;2.80;;
56171;SDS011;42052;41.634;-0.946;2023-06-01T12:35:25;3.38;;;2.90;;
56171;SDS011;42052;41.634;-0.946;2023-06-01T12:38:11;2.90;;;2.63;;
56171;SDS011;42052;41.634;-0.946;2023-06-01T12:41:07;3.30;;;2.63;;
56171;SDS011;42052;41.634;-0.946;2023-06-01T12:43:55;3.60;;;3.00;;
56171;SDS011;42052;41.634;-0.946;2023-06-01T12:46:42;3.33;;;2.90;;
56171;SDS011;42052;41.634;-0.946;2023-06-01T12:49:28;4.15;;;3.20;;
56171;SDS011;42052;41.634;-0.946;2023-06-01T12:52:15;3.72;;;3.08;;
56171;SDS011;42052;41.634;-0.946;2023-06-01T12:55:01;3.80;;;3.13;;
56171;SDS011;42052;41.634;-0.946;2023-06-01T12:57:53;3.10;;;2.80;;
56171;SDS011;42052;41.634;-0.946;2023-06-01T13:00:40;3.33;;;2.80;;
56171;SDS011;42052;41.634;-0.946;2023-06-01T13:03:26;3.30;;;3.00;;
56171;SDS011;42052;41.634;-0.946;2023-06-01T13:06:15;3.63;;;2.83;;
56171;SDS011;42052;41.634;-0.946;2023-06-01T13:09:02;3.28;;;2.97;;
56171;SDS011;42052;41.634;-0.946;2023-06-01T13:11:48;3.90;;;2.70;;
56171;SDS011;42052;41.634;-0.946;2023-06-01T13:14:35;3.25;;;2.95;;
56171;SDS011;42052;41.634;-0.946;2023-06-01T13:17:22;4.03;;;3.10;;
56171;SDS011;42052;41.634;-0.946;2023-06-01T13:20:08;3.05;;;2.75;;
56171;SDS011;42052;41.634;-0.946;2023-06-01T13:22:57;3.50;;;3.20;;
56171;SDS011;42052;41.634;-0.946;2023-06-01T13:25:43;3.60;;;2.92;;
56171;SDS011;42052;41.634;-0.946;2023-06-01T13:28:29;3.72;;;3.35;;
56171;SDS011;42052;41.634;-0.946;2023-06-01T13:31:15;3.10;;;2.80;;
56171;SDS011;42052;41.634;-0.946;2023-06-01T13:34:01;3.22;;;2.80;;
56171;SDS011;42052;41.634;-0.946;2023-06-01T13:36:48;4.10;;;2.80;;
56171;SDS011;42052;41.634;-0.946;2023-06-01T13:39:34;3.95;;;3.13;;
56171;SDS011;42052;41.634;-0.946;2023-06-01T13:42:20;3.47;;;3.10;;
56171;SDS011;42052;41.634;-0.946;2023-06-01T13:45:07;4.10;;;3.10;;
56171;SDS011;42052;41.634;-0.946;2023-06-01T13:47:54;3.55;;;3.03;;
56171;SDS011;42052;41.634;-0.946;2023-06-01T13:50:40;3.55;;;3.10;;
56171;SDS011;42052;41.634;-0.946;2023-06-01T13:53:26;3.38;;;3.08;;
56171;SDS011;42052;41.634;-0.946;2023-06-01T13:56:13;3.67;;;3.00;;
56171;SDS011;42052;41.634;-0.946;2023-06-01T13:58:59;3.55;;;2.90;;
56171;SDS011;42052;41.634;-0.946;2023-06-01T14:01:45;3.03;;;2.78;;
56171;SDS011;42052;41.634;-0.946;2023-06-01T14:04:31;5.05;;;3.28;;
56171;SDS011;42052;41.634;-0.946;2023-06-01T14:07:18;3.42;;;2.85;;
56171;SDS011;42052;41.634;-0.946;2023-06-01T14:10:04;3.30;;;2.83;;
56171;SDS011;42052;41.634;-0.946;2023-06-01T14:12:51;3.33;;;2.80;;
56171;SDS011;42052;41.634;-0.946;2023-06-01T14:15:38;3.97;;;3.20;;
56171;SDS011;42052;41.634;-0.946;2023-06-01T14:18:24;3.15;;;2.88;;
56171;SDS011;42052;41.634;-0.946;2023-06-01T14:21:10;3.30;;;3.00;;
56171;SDS011;42052;41.634;-0.946;2023-06-01T14:23:56;3.83;;;2.97;;
56171;SDS011;42052;41.634;-0.946;2023-06-01T14:26:42;3.45;;;3.15;;
56171;SDS011;42052;41.634;-0.946;2023-06-01T14:29:28;3.53;;;3.10;;
56171;SDS011;42052;41.634;-0.946;2023-06-01T14:32:14;3.17;;;2.85;;
56171;SDS011;42052;41.634;-0.946;2023-06-01T14:35:01;4.75;;;2.92;;
56171;SDS011;42052;41.634;-0.946;2023-06-01T14:37:47;3.70;;;3.00;;
56171;SDS011;42052;41.634;-0.946;2023-06-01T14:40:33;3.58;;;2.90;;
56171;SDS011;42052;41.634;-0.946;2023-06-01T14:43:19;4.03;;;3.20;;
56171;SDS011;42052;41.634;-0.946;2023-06-01T14:46:05;3.28;;;2.88;;
56171;SDS011;42052;41.634;-0.946;2023-06-01T14:48:51;4.30;;;3.05;;
56171;SDS011;42052;41.634;-0.946;2023-06-01T14:51:37;3.33;;;2.90;;
56171;SDS011;42052;41.634;-0.946;2023-06-01T14:54:23;3.90;;;3.03;;
56171;SDS011;42052;41.634;-0.946;2023-06-01T14:57:10;4.10;;;2.92;;
56171;SDS011;42052;41.634;-0.946;2023-06-01T14:59:56;4.10;;;3.10;;
56171;SDS011;42052;41.634;-0.946;2023-06-01T15:02:42;4.00;;;3.10;;
56171;SDS011;42052;41.634;-0.946;2023-06-01T15:05:28;3.13;;;2.83;;
56171;SDS011;42052;41.634;-0.946;2023-06-01T15:08:14;3.78;;;3.00;;
56171;SDS011;42052;41.634;-0.946;2023-06-01T15:11:00;3.60;;;2.90;;
56171;SDS011;42052;41.634;-0.946;2023-06-01T15:13:46;3.55;;;3.03;;
56171;SDS011;42052;41.634;-0.946;2023-06-01T15:16:32;3.72;;;3.28;;
56171;SDS011;42052;41.634;-0.946;2023-06-01T15:19:18;3.58;;;3.15;;
56171;SDS011;42052;41.634;-0.946;2023-06-01T15:22:05;3.42;;;3.13;;
56171;SDS011;42052;41.634;-0.946;2023-06-01T15:24:51;3.53;;;3.22;;
56171;SDS011;42052;41.634;-0.946;2023-06-01T15:27:37;3.17;;;2.88;;
56171;SDS011;42052;41.634;-0.946;2023-06-01T15:30:24;3.28;;;2.95;;
56171;SDS011;42052;41.634;-0.946;2023-06-01T15:33:12;3.83;;;3.22;;
56171;SDS011;42052;41.634;-0.946;2023-06-01T15:36:00;4.10;;;3.40;;
56171;SDS011;42052;41.634;-0.946;2023-06-01T15:38:46;3.72;;;3.30;;
56171;SDS011;42052;41.634;-0.946;2023-06-01T15:41:32;4.25;;;3.03;;
56171;SDS011;42052;41.634;-0.946;2023-06-01T15:44:18;3.40;;;3.08;;
56171;SDS011;42052;41.634;-0.946;2023-06-01T15:47:04;3.17;;;2.88;;
56171;SDS011;42052;41.634;-0.946;2023-06-01T15:49:50;3.70;;;3.10;;
56171;SDS011;42052;41.634;-0.946;2023-06-01T15:52:36;3.47;;;3.00;;
56171;SDS011;42052;41.634;-0.946;2023-06-01T15:55:22;3.42;;;3.13;;
56171;SDS011;42052;41.634;-0.946;2023-06-01T15:58:08;3.53;;;3.15;;
56171;SDS011;42052;41.634;-0.946;2023-06-01T16:00:55;3.33;;;2.85;;
56171;SDS011;42052;41.634;-0.946;2023-06-01T16:03:41;3.53;;;3.20;;
56171;SDS011;42052;41.634;-0.946;2023-06-01T16:06:27;3.67;;;3.13;;
56171;SDS011;42052;41.634;-0.946;2023-06-01T16:09:13;3.40;;;3.10;;
56171;SDS011;42052;41.634;-0.946;2023-06-01T16:11:59;4.22;;;3.20;;
56171;SDS011;42052;41.634;-0.946;2023-06-01T16:14:45;3.78;;;3.10;;
56171;SDS011;42052;41.634;-0.946;2023-06-01T16:17:32;2.95;;;2.75;;
56171;SDS011;42052;41.634;-0.946;2023-06-01T16:20:19;3.15;;;2.85;;
56171;SDS011;42052;41.634;-0.946;2023-06-01T16:23:05;3.53;;;3.20;;
56171;SDS011;42052;41.634;-0.946;2023-06-01T16:25:51;3.30;;;2.95;;
56171;SDS011;42052;41.634;-0.946;2023-06-01T16:28:38;3.15;;;2.85;;
56171;SDS011;42052;41.634;-0.946;2023-06-01T16:31:24;3.13;;;2.83;;
56171;SDS011;42052;41.634;-0.946;2023-06-01T16:34:10;3.92;;;3.15;;
56171;SDS011;42052;41.634;-0.946;2023-06-01T16:36:56;3.60;;;3.13;;
56171;SDS011;42052;41.634;-0.946;2023-06-01T16:39:42;5.50;;;3.20;;
56171;SDS011;42052;41.634;-0.946;2023-06-01T16:42:28;3.35;;;3.05;;
56171;SDS011;42052;41.634;-0.946;2023-06-01T16:45:14;3.75;;;3.15;;
56171;SDS011;42052;41.634;-0.946;2023-06-01T16:48:00;3.65;;;3.00;;
56171;SDS011;42052;41.634;-0.946;2023-06-01T16:50:47;5.10;;;3.30;;
56171;SDS011;42052;41.634;-0.946;2023-06-01T16:53:33;3.72;;;3.30;;
56171;SDS011;42052;41.634;-0.946;2023-06-01T16:56:19;3.63;;;3.05;;
56171;SDS011;42052;41.634;-0.946;2023-06-01T16:59:05;5.60;;;3.00;;
56171;SDS011;42052;41.634;-0.946;2023-06-01T17:01:51;3.80;;;3.20;;
56171;SDS011;42052;41.634;-0.946;2023-06-01T17:04:38;3.38;;;2.90;;
56171;SDS011;42052;41.634;-0.946;2023-06-01T17:07:24;3.28;;;2.97;;
56171;SDS011;42052;41.634;-0.946;2023-06-01T17:10:10;3.95;;;2.85;;